sensor_id;sensor_type;location;lat;lon;timestamp;temperature;humidity
6178;DHT22;3122;48.208;11.174;2024-03-25T00:01:02;3.10;1.00
6178;DHT22;3122;48.208;11.174;2024-03-25T00:06:03;3.10;1.00
6178;DHT22;3122;48.208;11.174;2024-03-25T00:11:04;3.00;1.00
6178;DHT22;3122;48.208;11.174;2024-03-25T00:16:05;2.90;1.00
6178;DHT22;3122;48.208;11.174;2024-03-25T00:21:06;2.90;1.00
6178;DHT22;3122;48.208;11.174;2024-03-25T00:26:07;2.90;1.00
6178;DHT22;3122;48.208;11.174;2024-03-25T00:31:07;2.90;1.00
6178;DHT22;3122;48.208;11.174;2024-03-25T00:36:08;2.90;1.00
6178;DHT22;3122;48.208;11.174;2024-03-25T00:41:09;2.90;1.00
6178;DHT22;3122;48.208;11.174;2024-03-25T00:46:09;2.90;1.00
6178;DHT22;3122;48.208;11.174;2024-03-25T00:51:10;3.00;1.00
6178;DHT22;3122;48.208;11.174;2024-03-25T00:56:10;3.00;1.00
6178;DHT22;3122;48.208;11.174;2024-03-25T01:01:11;3.00;1.00
6178;DHT22;3122;48.208;11.174;2024-03-25T01:06:12;3.00;1.00
6178;DHT22;3122;48.208;11.174;2024-03-25T01:11:13;3.00;1.00
6178;DHT22;3122;48.208;11.174;2024-03-25T01:16:13;3.10;1.00
6178;DHT22;3122;48.208;11.174;2024-03-25T01:21:14;3.20;1.00
6178;DHT22;3122;48.208;11.174;2024-03-25T01:26:15;3.10;1.00
6178;DHT22;3122;48.208;11.174;2024-03-25T01:31:15;3.20;1.00
6178;DHT22;3122;48.208;11.174;2024-03-25T01:36:16;3.10;1.00
6178;DHT22;3122;48.208;11.174;2024-03-25T01:41:21;3.10;1.00
6178;DHT22;3122;48.208;11.174;2024-03-25T01:46:23;3.10;1.00
6178;DHT22;3122;48.208;11.174;2024-03-25T01:51:24;3.00;1.00
6178;DHT22;3122;48.208;11.174;2024-03-25T01:56:25;3.00;1.00
6178;DHT22;3122;48.208;11.174;2024-03-25T02:01:27;3.00;1.00
6178;DHT22;3122;48.208;11.174;2024-03-25T02:06:29;3.00;1.00
6178;DHT22;3122;48.208;11.174;2024-03-25T02:11:31;3.00;1.00
6178;DHT22;3122;48.208;11.174;2024-03-25T02:16:32;3.00;1.00
6178;DHT22;3122;48.208;11.174;2024-03-25T02:21:32;3.00;1.00
6178;DHT22;3122;48.208;11.174;2024-03-25T02:26:33;3.00;1.00
6178;DHT22;3122;48.208;11.174;2024-03-25T02:31:33;2.90;1.00
6178;DHT22;3122;48.208;11.174;2024-03-25T02:36:34;2.90;1.00
6178;DHT22;3122;48.208;11.174;2024-03-25T02:41:35;2.90;1.00
6178;DHT22;3122;48.208;11.174;2024-03-25T02:46:39;2.90;1.00
6178;DHT22;3122;48.208;11.174;2024-03-25T02:51:40;2.90;1.00
6178;DHT22;3122;48.208;11.174;2024-03-25T02:56:41;2.90;1.00
6178;DHT22;3122;48.208;11.174;2024-03-25T03:01:41;2.90;1.00
6178;DHT22;3122;48.208;11.174;2024-03-25T03:06:42;2.90;1.00
6178;DHT22;3122;48.208;11.174;2024-03-25T03:11:42;2.80;1.00
6178;DHT22;3122;48.208;11.174;2024-03-25T03:16:43;2.80;1.00
6178;DHT22;3122;48.208;11.174;2024-03-25T03:21:43;2.70;1.00
6178;DHT22;3122;48.208;11.174;2024-03-25T03:26:44;2.70;1.00
6178;DHT22;3122;48.208;11.174;2024-03-25T03:31:45;2.50;1.00
6178;DHT22;3122;48.208;11.174;2024-03-25T03:36:45;2.40;1.00
6178;DHT22;3122;48.208;11.174;2024-03-25T03:41:46;2.30;1.00
6178;DHT22;3122;48.208;11.174;2024-03-25T03:46:46;2.30;1.00
6178;DHT22;3122;48.208;11.174;2024-03-25T03:51:47;2.30;1.00
6178;DHT22;3122;48.208;11.174;2024-03-25T03:56:47;2.30;1.00
6178;DHT22;3122;48.208;11.174;2024-03-25T04:01:48;2.30;1.00
6178;DHT22;3122;48.208;11.174;2024-03-25T04:06:49;2.30;1.00
6178;DHT22;3122;48.208;11.174;2024-03-25T04:11:49;2.30;1.00
6178;DHT22;3122;48.208;11.174;2024-03-25T04:16:50;2.30;1.00
6178;DHT22;3122;48.208;11.174;2024-03-25T04:21:53;2.20;1.00
6178;DHT22;3122;48.208;11.174;2024-03-25T04:26:54;2.10;1.00
6178;DHT22;3122;48.208;11.174;2024-03-25T04:31:55;2.20;1.00
6178;DHT22;3122;48.208;11.174;2024-03-25T04:36:58;2.00;1.00
6178;DHT22;3122;48.208;11.174;2024-03-25T04:42:00;2.00;1.00
6178;DHT22;3122;48.208;11.174;2024-03-25T04:47:00;2.10;1.00
6178;DHT22;3122;48.208;11.174;2024-03-25T04:52:01;2.00;1.00
6178;DHT22;3122;48.208;11.174;2024-03-25T04:57:03;2.00;1.00
6178;DHT22;3122;48.208;11.174;2024-03-25T05:02:06;2.00;1.00
6178;DHT22;3122;48.208;11.174;2024-03-25T05:07:07;1.90;1.00
6178;DHT22;3122;48.208;11.174;2024-03-25T05:12:07;2.00;1.00
6178;DHT22;3122;48.208;11.174;2024-03-25T05:17:08;2.00;1.00
6178;DHT22;3122;48.208;11.174;2024-03-25T05:22:09;2.00;1.00
6178;DHT22;3122;48.208;11.174;2024-03-25T05:27:10;2.00;1.00
6178;DHT22;3122;48.208;11.174;2024-03-25T05:32:10;1.90;1.00
6178;DHT22;3122;48.208;11.174;2024-03-25T05:37:11;2.00;1.00
6178;DHT22;3122;48.208;11.174;2024-03-25T05:42:11;2.00;1.00
6178;DHT22;3122;48.208;11.174;2024-03-25T05:47:12;2.10;1.00
6178;DHT22;3122;48.208;11.174;2024-03-25T05:52:14;2.10;1.00
6178;DHT22;3122;48.208;11.174;2024-03-25T05:57:15;2.20;1.00
6178;DHT22;3122;48.208;11.174;2024-03-25T06:02:15;2.30;1.00
6178;DHT22;3122;48.208;11.174;2024-03-25T06:07:16;2.40;1.00
6178;DHT22;3122;48.208;11.174;2024-03-25T06:12:16;2.50;1.00
6178;DHT22;3122;48.208;11.174;2024-03-25T06:17:17;2.50;1.00
6178;DHT22;3122;48.208;11.174;2024-03-25T06:22:17;2.60;1.00
6178;DHT22;3122;48.208;11.174;2024-03-25T06:27:18;2.70;1.00
6178;DHT22;3122;48.208;11.174;2024-03-25T06:32:20;2.80;1.00
6178;DHT22;3122;48.208;11.174;2024-03-25T06:37:39;3.00;1.00
6178;DHT22;3122;48.208;11.174;2024-03-25T06:42:39;3.00;1.00
6178;DHT22;3122;48.208;11.174;2024-03-25T06:47:40;3.00;1.00
6178;DHT22;3122;48.208;11.174;2024-03-25T06:52:40;3.20;1.00
6178;DHT22;3122;48.208;11.174;2024-03-25T06:57:41;3.30;1.00
6178;DHT22;3122;48.208;11.174;2024-03-25T07:02:42;3.40;1.00
6178;DHT22;3122;48.208;11.174;2024-03-25T07:07:42;3.60;1.00
6178;DHT22;3122;48.208;11.174;2024-03-25T07:12:43;3.80;1.00
6178;DHT22;3122;48.208;11.174;2024-03-25T07:17:44;3.90;1.00
6178;DHT22;3122;48.208;11.174;2024-03-25T07:22:45;4.10;1.00
6178;DHT22;3122;48.208;11.174;2024-03-25T07:27:45;4.20;1.00
6178;DHT22;3122;48.208;11.174;2024-03-25T07:32:46;4.30;1.00
6178;DHT22;3122;48.208;11.174;2024-03-25T07:37:48;4.40;1.00
6178;DHT22;3122;48.208;11.174;2024-03-25T07:42:51;4.60;1.00
6178;DHT22;3122;48.208;11.174;2024-03-25T07:47:52;4.70;1.00
6178;DHT22;3122;48.208;11.174;2024-03-25T07:52:53;4.80;1.00
6178;DHT22;3122;48.208;11.174;2024-03-25T07:57:54;4.90;1.00
6178;DHT22;3122;48.208;11.174;2024-03-25T08:02:54;5.10;1.00
6178;DHT22;3122;48.208;11.174;2024-03-25T08:07:55;5.10;1.00
6178;DHT22;3122;48.208;11.174;2024-03-25T08:12:55;5.30;1.00
6178;DHT22;3122;48.208;11.174;2024-03-25T08:17:56;5.40;1.00
6178;DHT22;3122;48.208;11.174;2024-03-25T08:22:57;5.50;1.00
6178;DHT22;3122;48.208;11.174;2024-03-25T08:27:58;5.70;1.00
6178;DHT22;3122;48.208;11.174;2024-03-25T08:32:58;5.60;1.00
6178;DHT22;3122;48.208;11.174;2024-03-25T08:37:59;5.70;1.00
6178;DHT22;3122;48.208;11.174;2024-03-25T08:43:00;5.70;1.00
6178;DHT22;3122;48.208;11.174;2024-03-25T08:48:00;6.00;1.00
6178;DHT22;3122;48.208;11.174;2024-03-25T08:53:01;5.90;1.00
6178;DHT22;3122;48.208;11.174;2024-03-25T08:58:02;6.10;1.00
6178;DHT22;3122;48.208;11.174;2024-03-25T09:03:03;6.30;1.00
6178;DHT22;3122;48.208;11.174;2024-03-25T09:08:08;6.30;1.00
6178;DHT22;3122;48.208;11.174;2024-03-25T09:13:11;6.30;1.00
6178;DHT22;3122;48.208;11.174;2024-03-25T09:18:12;6.50;1.00
6178;DHT22;3122;48.208;11.174;2024-03-25T09:23:12;6.50;1.00
6178;DHT22;3122;48.208;11.174;2024-03-25T09:28:13;6.60;1.00
6178;DHT22;3122;48.208;11.174;2024-03-25T09:33:14;6.80;1.00
6178;DHT22;3122;48.208;11.174;2024-03-25T09:38:15;6.70;1.00
6178;DHT22;3122;48.208;11.174;2024-03-25T09:43:23;6.80;1.00
6178;DHT22;3122;48.208;11.174;2024-03-25T09:48:24;7.00;1.00
6178;DHT22;3122;48.208;11.174;2024-03-25T09:53:24;7.20;1.00
6178;DHT22;3122;48.208;11.174;2024-03-25T09:58:25;7.20;1.00
6178;DHT22;3122;48.208;11.174;2024-03-25T10:03:26;7.00;1.00
6178;DHT22;3122;48.208;11.174;2024-03-25T10:08:27;6.90;1.00
6178;DHT22;3122;48.208;11.174;2024-03-25T10:13:30;6.80;1.00
6178;DHT22;3122;48.208;11.174;2024-03-25T10:18:31;6.80;1.00
6178;DHT22;3122;48.208;11.174;2024-03-25T10:23:31;7.10;1.00
6178;DHT22;3122;48.208;11.174;2024-03-25T10:28:35;7.10;1.00
6178;DHT22;3122;48.208;11.174;2024-03-25T10:33:35;7.20;1.00
6178;DHT22;3122;48.208;11.174;2024-03-25T10:38:36;7.20;1.00
6178;DHT22;3122;48.208;11.174;2024-03-25T10:43:37;7.40;1.00
6178;DHT22;3122;48.208;11.174;2024-03-25T10:48:40;7.50;1.00
6178;DHT22;3122;48.208;11.174;2024-03-25T10:53:43;7.80;1.00
6178;DHT22;3122;48.208;11.174;2024-03-25T10:58:44;7.90;1.00
6178;DHT22;3122;48.208;11.174;2024-03-25T11:03:47;8.00;1.00
6178;DHT22;3122;48.208;11.174;2024-03-25T11:08:56;8.00;1.00
6178;DHT22;3122;48.208;11.174;2024-03-25T11:13:58;7.90;1.00
6178;DHT22;3122;48.208;11.174;2024-03-25T11:19:03;7.70;1.00
6178;DHT22;3122;48.208;11.174;2024-03-25T11:24:06;7.90;1.00
6178;DHT22;3122;48.208;11.174;2024-03-25T11:29:08;7.70;1.00
6178;DHT22;3122;48.208;11.174;2024-03-25T11:34:08;7.40;1.00
6178;DHT22;3122;48.208;11.174;2024-03-25T11:39:09;7.70;1.00
6178;DHT22;3122;48.208;11.174;2024-03-25T11:44:11;8.10;1.00
6178;DHT22;3122;48.208;11.174;2024-03-25T11:49:14;8.60;1.00
6178;DHT22;3122;48.208;11.174;2024-03-25T11:54:15;8.30;1.00
6178;DHT22;3122;48.208;11.174;2024-03-25T11:59:16;8.00;1.00
6178;DHT22;3122;48.208;11.174;2024-03-25T12:04:18;8.00;1.00
6178;DHT22;3122;48.208;11.174;2024-03-25T12:09:19;8.50;1.00
6178;DHT22;3122;48.208;11.174;2024-03-25T12:14:38;8.30;1.00
6178;DHT22;3122;48.208;11.174;2024-03-25T12:19:38;8.60;1.00
6178;DHT22;3122;48.208;11.174;2024-03-25T12:24:41;8.90;1.00
6178;DHT22;3122;48.208;11.174;2024-03-25T12:29:42;8.60;1.00
6178;DHT22;3122;48.208;11.174;2024-03-25T12:34:42;8.60;1.00
6178;DHT22;3122;48.208;11.174;2024-03-25T12:39:49;8.50;1.00
6178;DHT22;3122;48.208;11.174;2024-03-25T12:44:51;8.80;1.00
6178;DHT22;3122;48.208;11.174;2024-03-25T12:49:51;8.70;1.00
6178;DHT22;3122;48.208;11.174;2024-03-25T12:54:52;8.50;1.00
6178;DHT22;3122;48.208;11.174;2024-03-25T12:59:52;8.70;1.00
6178;DHT22;3122;48.208;11.174;2024-03-25T13:04:53;8.70;1.00
6178;DHT22;3122;48.208;11.174;2024-03-25T13:09:54;8.40;1.00
6178;DHT22;3122;48.208;11.174;2024-03-25T13:14:55;8.70;1.00
6178;DHT22;3122;48.208;11.174;2024-03-25T13:19:56;8.80;1.00
6178;DHT22;3122;48.208;11.174;2024-03-25T13:24:57;9.00;1.00
6178;DHT22;3122;48.208;11.174;2024-03-25T13:29:57;9.10;1.00
6178;DHT22;3122;48.208;11.174;2024-03-25T13:34:58;8.70;1.00
6178;DHT22;3122;48.208;11.174;2024-03-25T13:39:58;8.80;1.00
6178;DHT22;3122;48.208;11.174;2024-03-25T13:44:59;9.00;1.00
6178;DHT22;3122;48.208;11.174;2024-03-25T13:50:06;9.00;1.00
6178;DHT22;3122;48.208;11.174;2024-03-25T13:55:10;9.00;1.00
6178;DHT22;3122;48.208;11.174;2024-03-25T14:00:12;9.00;1.00
6178;DHT22;3122;48.208;11.174;2024-03-25T14:05:13;9.00;1.00
6178;DHT22;3122;48.208;11.174;2024-03-25T14:10:14;8.90;1.00
6178;DHT22;3122;48.208;11.174;2024-03-25T14:15:15;9.00;1.00
6178;DHT22;3122;48.208;11.174;2024-03-25T14:20:16;9.00;1.00
6178;DHT22;3122;48.208;11.174;2024-03-25T14:25:16;9.10;1.00
6178;DHT22;3122;48.208;11.174;2024-03-25T14:30:17;9.20;1.00
6178;DHT22;3122;48.208;11.174;2024-03-25T14:35:17;9.00;1.00
6178;DHT22;3122;48.208;11.174;2024-03-25T14:40:18;9.20;1.00
6178;DHT22;3122;48.208;11.174;2024-03-25T14:45:18;9.50;1.00
6178;DHT22;3122;48.208;11.174;2024-03-25T14:50:19;9.50;1.00
6178;DHT22;3122;48.208;11.174;2024-03-25T14:55:19;9.40;1.00
6178;DHT22;3122;48.208;11.174;2024-03-25T15:00:20;9.60;1.00
6178;DHT22;3122;48.208;11.174;2024-03-25T15:05:21;9.50;1.00
6178;DHT22;3122;48.208;11.174;2024-03-25T15:10:21;9.20;1.00
6178;DHT22;3122;48.208;11.174;2024-03-25T15:15:22;9.10;1.00
6178;DHT22;3122;48.208;11.174;2024-03-25T15:20:22;9.20;1.00
6178;DHT22;3122;48.208;11.174;2024-03-25T15:25:23;9.20;1.00
6178;DHT22;3122;48.208;11.174;2024-03-25T15:30:24;9.40;1.00
6178;DHT22;3122;48.208;11.174;2024-03-25T15:35:25;9.30;1.00
6178;DHT22;3122;48.208;11.174;2024-03-25T15:40:26;9.20;1.00
6178;DHT22;3122;48.208;11.174;2024-03-25T15:45:27;9.30;1.00
6178;DHT22;3122;48.208;11.174;2024-03-25T15:50:29;9.20;1.00
6178;DHT22;3122;48.208;11.174;2024-03-25T15:55:30;9.20;1.00
6178;DHT22;3122;48.208;11.174;2024-03-25T16:00:31;9.20;1.00
6178;DHT22;3122;48.208;11.174;2024-03-25T16:05:32;9.50;1.00
6178;DHT22;3122;48.208;11.174;2024-03-25T16:10:34;9.70;1.00
6178;DHT22;3122;48.208;11.174;2024-03-25T16:15:35;9.90;1.00
6178;DHT22;3122;48.208;11.174;2024-03-25T16:20:36;9.60;1.00
6178;DHT22;3122;48.208;11.174;2024-03-25T16:25:36;9.60;1.00
6178;DHT22;3122;48.208;11.174;2024-03-25T16:30:37;9.30;1.00
6178;DHT22;3122;48.208;11.174;2024-03-25T16:35:37;9.00;1.00
6178;DHT22;3122;48.208;11.174;2024-03-25T16:40:38;8.70;1.00
6178;DHT22;3122;48.208;11.174;2024-03-25T16:45:39;8.40;1.00
6178;DHT22;3122;48.208;11.174;2024-03-25T16:50:40;8.30;1.00
6178;DHT22;3122;48.208;11.174;2024-03-25T16:55:40;8.10;1.00
6178;DHT22;3122;48.208;11.174;2024-03-25T17:00:41;8.00;1.00
6178;DHT22;3122;48.208;11.174;2024-03-25T17:05:41;8.00;1.00
6178;DHT22;3122;48.208;11.174;2024-03-25T17:10:42;7.80;1.00
6178;DHT22;3122;48.208;11.174;2024-03-25T17:15:43;7.80;1.00
6178;DHT22;3122;48.208;11.174;2024-03-25T17:20:44;8.00;1.00
6178;DHT22;3122;48.208;11.174;2024-03-25T17:25:44;7.70;1.00
6178;DHT22;3122;48.208;11.174;2024-03-25T17:30:45;7.60;1.00
6178;DHT22;3122;48.208;11.174;2024-03-25T17:35:47;7.50;1.00
6178;DHT22;3122;48.208;11.174;2024-03-25T17:40:48;7.30;1.00
6178;DHT22;3122;48.208;11.174;2024-03-25T17:45:48;7.10;1.00
6178;DHT22;3122;48.208;11.174;2024-03-25T17:50:56;7.00;1.00
6178;DHT22;3122;48.208;11.174;2024-03-25T17:56:01;6.80;1.00
6178;DHT22;3122;48.208;11.174;2024-03-25T18:01:02;6.70;1.00
6178;DHT22;3122;48.208;11.174;2024-03-25T18:06:02;6.50;1.00
6178;DHT22;3122;48.208;11.174;2024-03-25T18:11:03;6.40;1.00
6178;DHT22;3122;48.208;11.174;2024-03-25T18:16:04;6.40;1.00
6178;DHT22;3122;48.208;11.174;2024-03-25T18:21:04;6.30;1.00
6178;DHT22;3122;48.208;11.174;2024-03-25T18:26:05;6.20;1.00
6178;DHT22;3122;48.208;11.174;2024-03-25T18:31:05;6.10;1.00
6178;DHT22;3122;48.208;11.174;2024-03-25T18:36:09;6.20;1.00
6178;DHT22;3122;48.208;11.174;2024-03-25T18:41:09;6.10;1.00
6178;DHT22;3122;48.208;11.174;2024-03-25T18:46:10;6.00;1.00
6178;DHT22;3122;48.208;11.174;2024-03-25T18:51:10;6.00;1.00
6178;DHT22;3122;48.208;11.174;2024-03-25T18:56:11;6.00;1.00
6178;DHT22;3122;48.208;11.174;2024-03-25T19:01:11;5.80;1.00
6178;DHT22;3122;48.208;11.174;2024-03-25T19:06:12;5.80;1.00
6178;DHT22;3122;48.208;11.174;2024-03-25T19:11:13;5.70;1.00
6178;DHT22;3122;48.208;11.174;2024-03-25T19:16:14;5.50;1.00
6178;DHT22;3122;48.208;11.174;2024-03-25T19:21:14;5.60;1.00
6178;DHT22;3122;48.208;11.174;2024-03-25T19:26:15;5.50;1.00
6178;DHT22;3122;48.208;11.174;2024-03-25T19:31:15;5.50;1.00
6178;DHT22;3122;48.208;11.174;2024-03-25T19:36:16;5.30;1.00
6178;DHT22;3122;48.208;11.174;2024-03-25T19:41:16;5.20;1.00
6178;DHT22;3122;48.208;11.174;2024-03-25T19:46:17;5.10;1.00
6178;DHT22;3122;48.208;11.174;2024-03-25T19:51:17;5.10;1.00
6178;DHT22;3122;48.208;11.174;2024-03-25T19:56:18;5.10;1.00
6178;DHT22;3122;48.208;11.174;2024-03-25T20:01:18;5.10;1.00
6178;DHT22;3122;48.208;11.174;2024-03-25T20:06:20;4.90;1.00
6178;DHT22;3122;48.208;11.174;2024-03-25T20:11:20;4.90;1.00
6178;DHT22;3122;48.208;11.174;2024-03-25T20:16:21;4.90;1.00
6178;DHT22;3122;48.208;11.174;2024-03-25T20:21:22;4.90;1.00
6178;DHT22;3122;48.208;11.174;2024-03-25T20:26:23;4.70;1.00
6178;DHT22;3122;48.208;11.174;2024-03-25T20:31:24;4.70;1.00
6178;DHT22;3122;48.208;11.174;2024-03-25T20:36:24;4.70;1.00
6178;DHT22;3122;48.208;11.174;2024-03-25T20:41:25;4.70;1.00
6178;DHT22;3122;48.208;11.174;2024-03-25T20:46:25;4.70;1.00
6178;DHT22;3122;48.208;11.174;2024-03-25T20:51:28;4.50;1.00
6178;DHT22;3122;48.208;11.174;2024-03-25T20:56:29;4.30;1.00
6178;DHT22;3122;48.208;11.174;2024-03-25T21:01:30;4.30;1.00
6178;DHT22;3122;48.208;11.174;2024-03-25T21:06:30;4.40;1.00
6178;DHT22;3122;48.208;11.174;2024-03-25T21:11:31;4.30;1.00
6178;DHT22;3122;48.208;11.174;2024-03-25T21:16:31;4.40;1.00
6178;DHT22;3122;48.208;11.174;2024-03-25T21:21:32;4.10;1.00
6178;DHT22;3122;48.208;11.174;2024-03-25T21:26:32;4.00;1.00
6178;DHT22;3122;48.208;11.174;2024-03-25T21:31:33;4.00;1.00
6178;DHT22;3122;48.208;11.174;2024-03-25T21:36:33;3.90;1.00
6178;DHT22;3122;48.208;11.174;2024-03-25T21:41:34;3.90;1.00
6178;DHT22;3122;48.208;11.174;2024-03-25T21:46:35;3.80;1.00
6178;DHT22;3122;48.208;11.174;2024-03-25T21:51:36;3.70;1.00
6178;DHT22;3122;48.208;11.174;2024-03-25T21:56:36;3.60;1.00
6178;DHT22;3122;48.208;11.174;2024-03-25T22:01:37;3.60;1.00
6178;DHT22;3122;48.208;11.174;2024-03-25T22:06:37;3.60;1.00
6178;DHT22;3122;48.208;11.174;2024-03-25T22:11:38;3.50;1.00
6178;DHT22;3122;48.208;11.174;2024-03-25T22:16:39;3.50;1.00
6178;DHT22;3122;48.208;11.174;2024-03-25T22:21:40;3.40;1.00
6178;DHT22;3122;48.208;11.174;2024-03-25T22:26:40;3.30;1.00
6178;DHT22;3122;48.208;11.174;2024-03-25T22:31:41;3.30;1.00
6178;DHT22;3122;48.208;11.174;2024-03-25T22:36:41;3.20;1.00
6178;DHT22;3122;48.208;11.174;2024-03-25T22:41:42;3.20;1.00
6178;DHT22;3122;48.208;11.174;2024-03-25T22:46:43;3.20;1.00
6178;DHT22;3122;48.208;11.174;2024-03-25T22:51:44;3.10;1.00
6178;DHT22;3122;48.208;11.174;2024-03-25T22:56:45;3.00;1.00
6178;DHT22;3122;48.208;11.174;2024-03-25T23:01:45;3.00;1.00
6178;DHT22;3122;48.208;11.174;2024-03-25T23:06:46;3.00;1.00
6178;DHT22;3122;48.208;11.174;2024-03-25T23:11:46;2.90;1.00
6178;DHT22;3122;48.208;11.174;2024-03-25T23:16:47;3.00;1.00
6178;DHT22;3122;48.208;11.174;2024-03-25T23:21:47;3.00;1.00
6178;DHT22;3122;48.208;11.174;2024-03-25T23:26:48;2.90;1.00
6178;DHT22;3122;48.208;11.174;2024-03-25T23:31:49;2.70;1.00
6178;DHT22;3122;48.208;11.174;2024-03-25T23:36:49;2.70;1.00
6178;DHT22;3122;48.208;11.174;2024-03-25T23:41:50;2.70;1.00
6178;DHT22;3122;48.208;11.174;2024-03-25T23:46:50;2.50;1.00
6178;DHT22;3122;48.208;11.174;2024-03-25T23:51:51;2.50;1.00
6178;DHT22;3122;48.208;11.174;2024-03-25T23:56:51;2.40;1.00
